Time;durP1;ratioP1;P1;durP2;ratioP2;P2;SDS_P1;SDS_P2;PMS_P1;PMS_P2;Temp;Humidity;BMP_temperature;BMP_pressure;BME280_temperature;BME280_humidity;BME280_pressure;Samples;Min_cycle;Max_cycle;Signal;HPM_P1;HPM_P2
2021/07/18 00:02:04;;;;;;;3.78;2.40;;;17.30;99.90;;;;;;5047151;28;20209;-80
2021/07/18 00:04:31;;;;;;;3.05;2.75;;;17.30;99.90;;;;;;5046297;28;20221;-80
2021/07/18 00:06:58;;;;;;;3.67;2.80;;;17.30;99.90;;;;;;5046303;28;20201;-79
2021/07/18 00:09:25;;;;;;;3.35;2.50;;;17.30;99.90;;;;;;5046610;28;20209;-79
2021/07/18 00:11:51;;;;;;;4.03;2.75;;;17.30;99.90;;;;;;5045632;28;20194;-80
2021/07/18 00:14:18;;;;;;;5.35;3.30;;;17.30;99.90;;;;;;5045910;28;20214;-80
2021/07/18 00:16:45;;;;;;;5.65;3.97;;;17.30;99.90;;;;;;5044423;28;20242;-80
2021/07/18 00:19:14;;;;;;;3.40;3.05;;;17.30;99.90;;;;;;5045530;28;20212;-81
2021/07/18 00:21:40;;;;;;;3.97;3.58;;;17.30;99.90;;;;;;5044973;28;20206;-81
2021/07/18 00:24:07;;;;;;;6.03;3.33;;;17.20;99.90;;;;;;5044698;28;20217;-81
2021/07/18 00:26:34;;;;;;;5.63;3.95;;;17.20;99.90;;;;;;5045049;28;20213;-81
2021/07/18 00:29:01;;;;;;;6.32;4.53;;;17.20;99.90;;;;;;5045143;28;20803;-81
2021/07/18 00:31:28;;;;;;;5.72;5.10;;;17.20;99.90;;;;;;5044029;28;20275;-81
2021/07/18 00:33:55;;;;;;;6.45;4.95;;;17.20;99.90;;;;;;5045272;28;20305;-81
2021/07/18 00:36:23;;;;;;;5.10;4.28;;;17.10;99.90;;;;;;5064276;28;20209;-80
2021/07/18 00:38:50;;;;;;;6.13;3.92;;;17.10;99.90;;;;;;5054198;28;20220;-80
2021/07/18 00:41:17;;;;;;;6.47;5.03;;;17.10;99.90;;;;;;5045343;28;20209;-79
2021/07/18 00:43:43;;;;;;;5.78;4.38;;;17.10;99.90;;;;;;5044971;28;20208;-79
2021/07/18 00:46:11;;;;;;;6.65;4.88;;;17.10;99.90;;;;;;5045061;28;20198;-80
2021/07/18 00:48:38;;;;;;;6.43;4.43;;;17.10;99.90;;;;;;5044254;28;20198;-81
2021/07/18 00:51:05;;;;;;;6.45;4.50;;;17.10;99.90;;;;;;5044974;28;20244;-80
2021/07/18 00:53:33;;;;;;;6.65;4.13;;;17.00;99.90;;;;;;5043599;28;20210;-81
2021/07/18 00:56:00;;;;;;;6.60;4.00;;;17.00;99.90;;;;;;5044880;28;20205;-80
2021/07/18 00:58:30;;;;;;;4.72;4.10;;;17.00;99.90;;;;;;5044923;28;20236;-80
2021/07/18 01:00:58;;;;;;;4.07;3.03;;;17.00;99.90;;;;;;5044507;28;20194;-80
2021/07/18 01:03:27;;;;;;;5.32;3.95;;;17.00;99.90;;;;;;5044842;28;20210;-81
2021/07/18 01:05:54;;;;;;;4.57;3.95;;;17.00;99.90;;;;;;5044325;28;20360;-81
2021/07/18 01:08:21;;;;;;;7.53;4.40;;;17.00;99.90;;;;;;5044795;28;20198;-79
2021/07/18 01:10:49;;;;;;;5.32;3.42;;;17.00;99.90;;;;;;5043936;28;21015;-80
2021/07/18 01:13:16;;;;;;;4.57;3.95;;;17.00;99.90;;;;;;5058311;28;20202;-80
2021/07/18 01:15:44;;;;;;;3.80;3.30;;;17.00;99.90;;;;;;5051307;28;20291;-80
2021/07/18 01:18:11;;;;;;;3.67;3.30;;;16.90;99.90;;;;;;5049878;28;20229;-81
2021/07/18 01:20:40;;;;;;;4.40;3.72;;;16.90;99.90;;;;;;5047267;28;20202;-79
2021/07/18 01:23:09;;;;;;;4.50;2.92;;;16.90;99.90;;;;;;5045624;28;20210;-79
2021/07/18 01:25:37;;;;;;;3.67;3.20;;;16.90;99.90;;;;;;5045359;28;20235;-79
2021/07/18 01:28:07;;;;;;;3.83;3.05;;;16.90;99.90;;;;;;5045203;28;20212;-79
2021/07/18 01:30:34;;;;;;;3.60;3.20;;;16.90;99.90;;;;;;5045512;28;20233;-79
2021/07/18 01:33:01;;;;;;;4.53;3.05;;;16.90;99.90;;;;;;5045731;28;20225;-78
2021/07/18 01:35:29;;;;;;;3.88;2.88;;;16.90;99.90;;;;;;5044136;28;20232;-79
2021/07/18 01:37:56;;;;;;;3.05;2.75;;;16.80;99.90;;;;;;5044607;28;20566;-80
2021/07/18 01:40:24;;;;;;;3.17;2.60;;;16.80;99.90;;;;;;5044785;28;20193;-80
2021/07/18 01:42:52;;;;;;;3.75;2.80;;;16.80;99.90;;;;;;5043662;28;20585;-79
2021/07/18 01:45:19;;;;;;;2.45;2.25;;;16.80;99.90;;;;;;5044635;28;20291;-80
2021/07/18 01:47:46;;;;;;;3.78;2.65;;;16.80;99.90;;;;;;5044138;28;20218;-80
2021/07/18 01:50:13;;;;;;;3.22;2.70;;;16.80;99.90;;;;;;5044696;28;20206;-79
2021/07/18 01:52:40;;;;;;;4.38;2.80;;;16.80;99.90;;;;;;5045101;28;20228;-79
2021/07/18 01:55:08;;;;;;;4.10;3.55;;;16.70;99.90;;;;;;5044199;28;20205;-79
2021/07/18 01:57:37;;;;;;;3.88;3.25;;;16.70;99.90;;;;;;5044703;28;20206;-80
2021/07/18 02:00:06;;;;;;;3.92;3.58;;;16.70;99.90;;;;;;5045010;28;20206;-80
2021/07/18 02:02:33;;;;;;;4.97;3.40;;;16.70;99.90;;;;;;5053720;28;20204;-80
2021/07/18 02:04:59;;;;;;;4.18;3.25;;;16.70;99.90;;;;;;5064983;28;20201;-80
2021/07/18 02:07:27;;;;;;;4.45;3.47;;;16.70;99.90;;;;;;5064174;28;20855;-80
2021/07/18 02:09:55;;;;;;;5.07;3.38;;;16.70;99.90;;;;;;5043737;28;20217;-81
2021/07/18 02:12:22;;;;;;;4.95;3.38;;;16.70;99.90;;;;;;5044526;28;20226;-81
2021/07/18 02:14:50;;;;;;;4.22;3.40;;;16.70;99.90;;;;;;5044689;28;20404;-81
2021/07/18 02:17:17;;;;;;;4.07;3.40;;;16.70;99.90;;;;;;5043859;28;20276;-81
2021/07/18 02:19:43;;;;;;;4.35;3.08;;;16.70;99.90;;;;;;5043589;28;20268;-81
2021/07/18 02:22:11;;;;;;;3.60;2.97;;;16.60;99.90;;;;;;5047147;28;20194;-82
2021/07/18 02:24:38;;;;;;;3.42;3.13;;;16.60;99.90;;;;;;5046751;28;20272;-81
2021/07/18 02:27:07;;;;;;;3.33;3.05;;;16.60;99.90;;;;;;5063992;28;20201;-81
2021/07/18 02:29:34;;;;;;;3.53;3.05;;;16.60;99.90;;;;;;5067264;28;20258;-81
2021/07/18 02:32:03;;;;;;;3.65;3.33;;;16.60;99.90;;;;;;5072543;28;20650;-82
2021/07/18 02:34:29;;;;;;;3.50;3.20;;;16.60;99.90;;;;;;5067290;28;20209;-81
2021/07/18 02:36:56;;;;;;;3.28;2.92;;;16.50;99.90;;;;;;5049403;28;20403;-81
2021/07/18 02:39:23;;;;;;;3.20;2.90;;;16.50;99.90;;;;;;5063042;28;20209;-82
2021/07/18 02:41:50;;;;;;;2.90;2.70;;;16.50;99.90;;;;;;5059542;28;20210;-81
2021/07/18 02:44:18;;;;;;;3.03;2.72;;;16.50;99.90;;;;;;5048461;28;20818;-82
2021/07/18 02:46:44;;;;;;;2.83;2.55;;;16.50;99.90;;;;;;5048217;28;20206;-82
2021/07/18 02:49:12;;;;;;;4.13;3.05;;;16.40;99.90;;;;;;5048550;28;20194;-81
2021/07/18 02:51:39;;;;;;;5.50;3.00;;;16.40;99.90;;;;;;5067835;28;20221;-81
2021/07/18 02:54:06;;;;;;;3.15;2.85;;;16.40;99.90;;;;;;5064648;28;20225;-82
2021/07/18 02:56:33;;;;;;;3.53;3.20;;;16.40;99.90;;;;;;5048425;28;20202;-82
2021/07/18 02:59:00;;;;;;;4.20;3.80;;;16.40;99.90;;;;;;5048369;28;20209;-82
2021/07/18 03:01:27;;;;;;;3.60;3.28;;;16.40;99.90;;;;;;5048518;28;20217;-81
2021/07/18 03:03:54;;;;;;;5.15;4.25;;;16.40;99.90;;;;;;5048816;28;20281;-80
2021/07/18 03:06:22;;;;;;;5.43;3.85;;;16.40;99.90;;;;;;5048546;28;20216;-81
2021/07/18 03:08:48;;;;;;;3.53;3.22;;;16.40;99.90;;;;;;5068156;28;20201;-82
2021/07/18 03:11:15;;;;;;;3.95;3.55;;;16.40;99.90;;;;;;5067062;28;20248;-81
2021/07/18 03:13:42;;;;;;;4.30;3.53;;;16.40;99.90;;;;;;5065720;28;20297;-82
2021/07/18 03:16:09;;;;;;;4.20;3.60;;;16.30;99.90;;;;;;5048621;28;20205;-81
2021/07/18 03:18:35;;;;;;;5.03;4.20;;;16.30;99.90;;;;;;5047954;28;20233;-81
2021/07/18 03:21:02;;;;;;;6.80;4.75;;;16.30;99.90;;;;;;5048090;28;20197;-81
2021/07/18 03:23:31;;;;;;;5.95;4.78;;;16.30;99.90;;;;;;5048040;28;20198;-81
2021/07/18 03:25:57;;;;;;;8.57;6.13;;;16.30;99.90;;;;;;5048407;28;20602;-81
2021/07/18 03:28:24;;;;;;;7.65;5.30;;;16.30;99.90;;;;;;5047413;28;20606;-81
2021/07/18 03:30:51;;;;;;;6.32;5.05;;;16.40;99.90;;;;;;5061640;28;20236;-81
2021/07/18 03:33:19;;;;;;;5.15;4.65;;;16.40;99.90;;;;;;5067306;28;20254;-82
2021/07/18 03:35:46;;;;;;;7.40;5.38;;;16.40;99.90;;;;;;5055750;28;20226;-82
2021/07/18 03:38:13;;;;;;;8.88;6.90;;;16.40;99.90;;;;;;5048144;28;20202;-82
2021/07/18 03:40:41;;;;;;;7.15;6.38;;;16.30;99.90;;;;;;5046973;28;20210;-80
2021/07/18 03:43:08;;;;;;;8.30;5.75;;;16.40;99.90;;;;;;5047759;28;20212;-80
2021/07/18 03:45:35;;;;;;;8.93;6.32;;;16.30;99.90;;;;;;5047672;28;20217;-81
2021/07/18 03:48:02;;;;;;;11.20;7.78;;;16.30;99.90;;;;;;5048085;28;20217;-80
2021/07/18 03:50:29;;;;;;;9.07;6.97;;;16.30;99.90;;;;;;5047880;28;20206;-82
2021/07/18 03:52:55;;;;;;;10.18;7.68;;;16.40;99.90;;;;;;5048100;28;20229;-82
2021/07/18 03:55:22;;;;;;;8.68;6.07;;;16.40;99.90;;;;;;5047234;28;20202;-81
2021/07/18 03:57:50;;;;;;;7.38;6.55;;;16.40;99.90;;;;;;5047369;28;20197;-80
2021/07/18 04:00:18;;;;;;;8.85;6.47;;;16.40;99.90;;;;;;5047527;28;20213;-81
2021/07/18 04:02:44;;;;;;;6.35;5.00;;;16.40;99.90;;;;;;5046603;28;20206;-81
2021/07/18 04:05:12;;;;;;;5.20;4.70;;;16.40;99.90;;;;;;5047371;28;20558;-81
2021/07/18 04:07:39;;;;;;;5.28;4.63;;;16.40;99.90;;;;;;5046747;28;20206;-80
2021/07/18 04:10:06;;;;;;;6.53;5.70;;;16.40;99.90;;;;;;5046233;28;20760;-80
2021/07/18 04:12:34;;;;;;;7.78;5.43;;;16.40;99.90;;;;;;5046768;28;20221;-81
2021/07/18 04:15:02;;;;;;;10.35;7.28;;;16.40;99.90;;;;;;5047002;28;20816;-82
2021/07/18 04:17:29;;;;;;;6.40;5.78;;;16.50;99.90;;;;;;5045517;28;20237;-81
2021/07/18 04:19:56;;;;;;;9.15;6.45;;;16.50;99.90;;;;;;5046346;28;20210;-82
2021/07/18 04:22:23;;;;;;;7.93;5.03;;;16.50;99.90;;;;;;5047215;28;20767;-81
2021/07/18 04:24:50;;;;;;;6.85;5.22;;;16.50;99.90;;;;;;5046296;28;20202;-80
2021/07/18 04:27:17;;;;;;;8.23;5.55;;;16.60;99.90;;;;;;5046604;28;20218;-82
2021/07/18 04:29:43;;;;;;;6.50;5.80;;;16.60;99.90;;;;;;5060289;28;20213;-81
2021/07/18 04:32:12;;;;;;;9.98;5.22;;;16.60;99.90;;;;;;5061746;28;20237;-80
2021/07/18 04:34:42;;;;;;;6.80;5.05;;;16.70;99.90;;;;;;5046251;28;20217;-81
2021/07/18 04:37:09;;;;;;;7.10;4.60;;;16.80;99.90;;;;;;5046435;28;20508;-81
2021/07/18 04:39:36;;;;;;;4.68;3.83;;;16.80;99.90;;;;;;5045585;28;20198;-81
2021/07/18 04:42:03;;;;;;;3.95;3.60;;;16.80;99.90;;;;;;5045396;28;20205;-81
2021/07/18 04:44:32;;;;;;;6.75;4.60;;;16.80;99.90;;;;;;5043463;28;20206;-83
2021/07/18 04:46:59;;;;;;;4.88;3.83;;;16.90;99.90;;;;;;5046699;28;20354;-82
2021/07/18 04:49:28;;;;;;;6.03;4.38;;;16.90;99.90;;;;;;5065662;28;20201;-82
2021/07/18 04:51:55;;;;;;;4.70;4.05;;;16.90;99.90;;;;;;5064983;28;20228;-81
2021/07/18 04:54:22;;;;;;;6.13;4.97;;;17.00;99.90;;;;;;5065696;28;20620;-80
2021/07/18 04:56:49;;;;;;;8.05;4.97;;;17.00;99.90;;;;;;5049321;28;20256;-80
2021/07/18 04:59:16;;;;;;;7.80;4.90;;;17.10;99.90;;;;;;5044509;28;20270;-81
2021/07/18 05:01:43;;;;;;;5.75;4.75;;;17.10;99.90;;;;;;5044852;28;20206;-81
2021/07/18 05:04:10;;;;;;;6.13;4.50;;;17.20;99.90;;;;;;5045560;28;20206;-82
2021/07/18 05:06:38;;;;;;;5.25;3.97;;;17.30;99.90;;;;;;5058388;28;20223;-80
2021/07/18 05:09:05;;;;;;;6.85;3.92;;;17.30;99.90;;;;;;5067049;28;20209;-81
2021/07/18 05:11:31;;;;;;;6.18;3.78;;;17.40;99.90;;;;;;5066218;28;20236;-82
2021/07/18 05:13:58;;;;;;;5.18;3.30;;;17.40;99.90;;;;;;5052839;28;20213;-81
2021/07/18 05:16:25;;;;;;;4.38;3.22;;;17.50;99.90;;;;;;5046728;28;20205;-81
2021/07/18 05:18:52;;;;;;;6.28;3.17;;;17.60;99.90;;;;;;5045963;28;20505;-82
2021/07/18 05:21:19;;;;;;;6.63;3.30;;;17.70;99.90;;;;;;5045449;28;20194;-82
2021/07/18 05:23:47;;;;;;;4.43;2.80;;;17.70;99.90;;;;;;5045283;28;20190;-82
2021/07/18 05:26:14;;;;;;;3.95;3.00;;;17.80;99.90;;;;;;5044980;28;20198;-83
2021/07/18 05:28:41;;;;;;;3.75;3.03;;;17.80;99.90;;;;;;5045373;28;20498;-81
2021/07/18 05:31:08;;;;;;;4.07;2.80;;;17.90;99.90;;;;;;5045537;28;20497;-81
2021/07/18 05:33:35;;;;;;;7.68;2.90;;;18.00;99.90;;;;;;5045006;28;20205;-81
2021/07/18 05:36:02;;;;;;;5.35;2.72;;;18.20;99.90;;;;;;5044972;28;20259;-82
2021/07/18 05:38:28;;;;;;;5.15;3.15;;;18.40;99.90;;;;;;5045707;28;20209;-82
2021/07/18 05:40:57;;;;;;;4.38;2.42;;;18.70;99.90;;;;;;5045343;28;20202;-83
2021/07/18 05:43:23;;;;;;;5.85;2.65;;;19.10;99.90;;;;;;5044978;28;20201;-83
2021/07/18 05:45:50;;;;;;;4.53;2.20;;;19.40;99.90;;;;;;5044293;28;20198;-80
2021/07/18 05:48:22;;;;;;;4.32;2.30;;;19.70;99.90;;;;;;5043954;28;20619;-80
2021/07/18 05:50:49;;;;;;;4.93;2.25;;;20.00;99.90;;;;;;5044454;28;20198;-81
2021/07/18 05:53:16;;;;;;;4.25;2.60;;;20.20;99.90;;;;;;5044785;28;20229;-81
2021/07/18 05:55:43;;;;;;;4.38;2.10;;;20.50;99.90;;;;;;5045246;28;20240;-81
2021/07/18 05:58:11;;;;;;;3.97;2.47;;;20.80;99.90;;;;;;5048665;28;20197;-80
2021/07/18 06:00:40;;;;;;;6.90;3.58;;;21.10;99.90;;;;;;5048168;28;20383;-79
2021/07/18 06:03:06;;;;;;;6.07;4.30;;;21.40;99.90;;;;;;5047814;28;20237;-80
2021/07/18 06:05:34;;;;;;;4.82;3.75;;;21.60;99.90;;;;;;5047658;28;20202;-81
2021/07/18 06:08:01;;;;;;;6.45;4.10;;;21.90;99.90;;;;;;5048202;28;20206;-81
2021/07/18 06:10:28;;;;;;;8.07;4.28;;;22.20;99.90;;;;;;5049090;28;20217;-84
2021/07/18 06:12:55;;;;;;;6.28;3.35;;;22.40;99.90;;;;;;5048675;28;20222;-83
2021/07/18 06:15:23;;;;;;;4.10;2.10;;;22.60;99.90;;;;;;5047776;28;20205;-81
2021/07/18 06:17:50;;;;;;;3.05;1.95;;;22.90;99.90;;;;;;5047903;28;20238;-80
2021/07/18 06:20:19;;;;;;;3.80;2.30;;;23.20;99.90;;;;;;5049084;28;20206;-80
2021/07/18 06:22:46;;;;;;;3.65;1.73;;;23.50;99.90;;;;;;5051341;28;20194;-80
2021/07/18 06:25:14;;;;;;;2.45;1.67;;;23.70;99.90;;;;;;5049353;28;20306;-80
2021/07/18 06:27:41;;;;;;;2.03;1.55;;;23.80;99.90;;;;;;5049077;28;20198;-80
2021/07/18 06:30:10;;;;;;;2.45;1.55;;;24.00;99.90;;;;;;5048599;28;20208;-80
2021/07/18 06:32:38;;;;;;;4.03;1.60;;;24.10;99.90;;;;;;5048306;28;20221;-81
2021/07/18 06:35:06;;;;;;;2.28;1.50;;;24.30;99.90;;;;;;5048465;28;20847;-80
2021/07/18 06:37:33;;;;;;;3.97;1.55;;;24.40;99.90;;;;;;5046890;28;20217;-80
2021/07/18 06:40:00;;;;;;;2.33;1.70;;;24.50;99.90;;;;;;5048030;28;20190;-80
2021/07/18 06:42:27;;;;;;;3.72;1.70;;;24.60;99.90;;;;;;5047672;28;20516;-81
2021/07/18 06:44:54;;;;;;;5.15;1.77;;;24.80;99.90;;;;;;5047065;28;20206;-80
2021/07/18 06:47:21;;;;;;;3.35;1.67;;;24.90;99.90;;;;;;5047790;28;20210;-80
2021/07/18 06:49:49;;;;;;;2.42;1.52;;;25.10;99.90;;;;;;5050545;28;20197;-79
2021/07/18 06:52:16;;;;;;;1.70;1.35;;;25.30;99.90;;;;;;5066831;28;20229;-79
2021/07/18 06:54:43;;;;;;;5.28;1.98;;;25.40;99.90;;;;;;5065496;28;20205;-79
2021/07/18 06:57:10;;;;;;;1.60;1.50;;;25.60;99.90;;;;;;5066667;28;20205;-78
2021/07/18 06:59:36;;;;;;;6.65;2.30;;;25.70;99.90;;;;;;5045841;28;20216;-79
2021/07/18 07:02:04;;;;;;;2.65;1.60;;;25.90;99.90;;;;;;5047679;28;20320;-78
2021/07/18 07:11:33;;;;;;;3.22;1.70;;;26.40;99.90;;;;;;5004945;28;20220;-82
2021/07/18 07:14:00;;;;;;;3.78;1.80;;;26.40;99.90;;;;;;5046693;28;20241;-80
2021/07/18 07:16:26;;;;;;;4.05;1.73;;;26.20;99.90;;;;;;5046508;28;20190;-80
2021/07/18 07:18:53;;;;;;;2.53;1.60;;;26.20;99.90;;;;;;5046424;28;20288;-79
2021/07/18 07:21:20;;;;;;;3.55;1.70;;;26.40;99.90;;;;;;5046860;28;20202;-81
2021/07/18 07:23:47;;;;;;;3.90;2.03;;;26.50;99.90;;;;;;5045688;28;20214;-78
2021/07/18 07:26:14;;;;;;;2.72;1.67;;;26.70;99.90;;;;;;5034438;28;20197;-78
2021/07/18 07:28:42;;;;;;;2.72;1.88;;;27.00;99.90;;;;;;5066109;28;20648;-79
2021/07/18 07:31:09;;;;;;;4.00;1.40;;;27.20;99.90;;;;;;5066716;28;20208;-79
2021/07/18 07:33:35;;;;;;;3.33;1.58;;;27.30;99.90;;;;;;5048925;28;20245;-79
2021/07/18 07:36:04;;;;;;;2.10;1.30;;;27.20;99.90;;;;;;5047832;28;20628;-79
2021/07/18 07:38:31;;;;;;;3.53;1.80;;;27.40;99.90;;;;;;5051300;28;20205;-80
2021/07/18 07:40:58;;;;;;;3.35;1.30;;;27.50;99.90;;;;;;5050998;28;20202;-80
2021/07/18 07:43:24;;;;;;;2.97;1.60;;;27.30;99.90;;;;;;5049687;28;20210;-79
2021/07/18 07:45:53;;;;;;;2.28;1.40;;;27.40;99.90;;;;;;5047896;28;20595;-80
2021/07/18 07:48:20;;;;;;;2.17;1.30;;;27.40;99.90;;;;;;5047552;28;20206;-79
2021/07/18 07:50:47;;;;;;;2.25;1.55;;;27.40;99.90;;;;;;5047298;28;20202;-79
2021/07/18 07:53:14;;;;;;;5.00;1.98;;;27.50;99.90;;;;;;5047038;28;20225;-79
2021/07/18 07:55:41;;;;;;;2.28;1.55;;;27.60;99.90;;;;;;5045489;28;20205;-81
2021/07/18 07:58:07;;;;;;;4.53;1.88;;;27.60;99.90;;;;;;5046771;28;20497;-80
2021/07/18 08:00:35;;;;;;;2.28;1.65;;;27.40;99.90;;;;;;5045873;28;20213;-79
2021/07/18 08:03:04;;;;;;;4.60;1.50;;;27.40;99.90;;;;;;5046169;28;20209;-81
2021/07/18 08:05:31;;;;;;;1.55;1.40;;;27.40;99.90;;;;;;5045067;28;20214;-80
2021/07/18 08:07:57;;;;;;;5.10;1.67;;;27.30;99.90;;;;;;5045620;28;20228;-81
2021/07/18 08:10:25;;;;;;;3.78;1.50;;;27.40;99.90;;;;;;5046248;28;20494;-81
2021/07/18 08:12:52;;;;;;;2.05;1.30;;;27.40;99.90;;;;;;5052727;22;20237;-78
2021/07/18 08:15:21;;;;;;;2.40;1.45;;;27.40;99.90;;;;;;5034922;28;20234;-81
2021/07/18 08:17:48;;;;;;;1.50;1.15;;;27.60;99.90;;;;;;5025238;28;20226;-79
2021/07/18 08:20:19;;;;;;;2.60;1.25;;;27.60;99.90;;;;;;5026186;28;20203;-77
2021/07/18 08:22:46;;;;;;;4.57;1.77;;;27.70;99.90;;;;;;5024367;28;20563;-80
2021/07/18 08:25:15;;;;;;;2.05;1.23;;;27.90;99.90;;;;;;5025217;28;20222;-80
2021/07/18 08:27:42;;;;;;;3.90;1.50;;;28.10;99.90;;;;;;5025305;28;20268;-80
2021/07/18 08:30:10;;;;;;;2.45;1.27;;;28.20;99.90;;;;;;5025360;28;20203;-81
2021/07/18 08:32:37;;;;;;;3.28;1.65;;;28.50;99.90;;;;;;5025135;28;20257;-81
2021/07/18 08:35:06;;;;;;;3.67;1.63;;;28.50;99.90;;;;;;5017115;28;20206;-80
2021/07/18 08:37:34;;;;;;;4.55;1.42;;;28.70;99.90;;;;;;5024108;28;20217;-79
2021/07/18 08:40:02;;;;;;;5.13;1.63;;;28.60;99.90;;;;;;5024670;28;20610;-80
2021/07/18 08:42:30;;;;;;;3.65;1.63;;;28.90;99.90;;;;;;5025251;28;20307;-80
2021/07/18 08:45:01;;;;;;;4.22;1.67;;;28.90;99.90;;;;;;5024757;28;20206;-81
2021/07/18 08:47:28;;;;;;;6.22;2.33;;;28.80;99.90;;;;;;5025097;28;20205;-82
2021/07/18 08:49:55;;;;;;;4.35;1.98;;;29.00;99.90;;;;;;5025260;28;20842;-79
2021/07/18 08:52:23;;;;;;;5.03;2.05;;;28.90;99.90;;;;;;5025254;28;20206;-81
2021/07/18 08:54:52;;;;;;;8.55;2.20;;;28.90;99.90;;;;;;5028695;28;20215;-81
2021/07/18 08:57:19;;;;;;;6.07;2.05;;;28.90;99.90;;;;;;5033893;28;20198;-81
2021/07/18 08:59:47;;;;;;;2.78;1.75;;;29.00;99.90;;;;;;5044547;28;20225;-81
2021/07/18 09:02:14;;;;;;;4.88;2.13;;;28.90;99.90;;;;;;5066141;28;20593;-81
2021/07/18 09:04:41;;;;;;;4.43;1.85;;;29.10;99.90;;;;;;5068159;28;20229;-79
2021/07/18 09:07:10;;;;;;;3.38;2.30;;;29.00;99.90;;;;;;5037033;28;20638;-83
2021/07/18 09:09:37;;;;;;;6.05;2.05;;;28.90;99.90;;;;;;5024070;28;20209;-82
2021/07/18 09:12:07;;;;;;;3.65;1.83;;;28.90;99.90;;;;;;5023580;28;20210;-81
2021/07/18 09:14:36;;;;;;;2.80;2.45;;;29.20;99.90;;;;;;5024624;28;20787;-82
2021/07/18 09:17:05;;;;;;;3.10;2.35;;;29.30;99.90;;;;;;5025919;28;20235;-85
2021/07/18 09:19:32;;;;;;;4.30;2.30;;;29.00;99.90;;;;;;5024531;28;20209;-82
2021/07/18 09:22:17;;;;;;;4.20;2.25;;;28.90;99.90;;;;;;5032064;28;20220;-81
2021/07/18 09:24:47;;;;;;;8.70;2.67;;;28.70;99.90;;;;;;5044490;28;20505;-81
2021/07/18 09:27:18;;;;;;;3.60;2.10;;;28.70;99.90;;;;;;5044476;28;20190;-83
2021/07/18 09:29:47;;;;;;;4.35;2.15;;;28.90;99.90;;;;;;5030640;28;20194;-84
2021/07/18 09:32:15;;;;;;;1.60;1.50;;;28.90;99.90;;;;;;5024549;28;20198;-82
2021/07/18 09:34:44;;;;;;;5.15;2.30;;;28.90;99.90;;;;;;5025048;28;20237;-81
2021/07/18 09:37:21;;;;;;;2.67;2.20;;;29.00;99.90;;;;;;5025996;28;20206;-80
2021/07/18 09:39:54;;;;;;;5.53;2.10;;;29.20;99.90;;;;;;5023278;28;20206;-81
2021/07/18 09:42:30;;;;;;;5.80;2.63;;;29.10;99.90;;;;;;5024503;28;20206;-81
2021/07/18 09:44:57;;;;;;;3.35;1.80;;;29.10;99.90;;;;;;5025770;28;20209;-82
2021/07/18 09:47:24;;;;;;;1.98;1.75;;;29.10;99.90;;;;;;5024423;28;20524;-82
2021/07/18 09:49:51;;;;;;;3.08;1.80;;;29.10;99.90;;;;;;5024955;28;20967;-82
2021/07/18 09:52:20;;;;;;;2.22;1.50;;;29.10;99.90;;;;;;5024473;28;20212;-82
2021/07/18 09:54:49;;;;;;;2.65;1.10;;;29.40;99.90;;;;;;5024178;28;20601;-85
2021/07/18 09:57:42;;;;;;;4.03;1.08;;;29.40;99.90;;;;;;5025151;28;20202;-82
2021/07/18 10:00:11;;;;;;;1.73;1.30;;;29.70;99.90;;;;;;5024814;28;20605;-82
2021/07/18 10:02:41;;;;;;;2.83;1.50;;;30.00;99.90;;;;;;5023712;28;20603;-81
2021/07/18 10:05:17;;;;;;;1.63;1.40;;;30.10;99.90;;;;;;5024480;28;20194;-82
2021/07/18 10:07:44;;;;;;;1.80;1.20;;;30.40;99.90;;;;;;5023779;28;20309;-80
2021/07/18 10:10:12;;;;;;;1.77;1.30;;;30.40;99.90;;;;;;5024429;28;20214;-81
2021/07/18 10:12:40;;;;;;;2.90;1.40;;;30.40;99.90;;;;;;5024162;28;20215;-83
2021/07/18 10:15:08;;;;;;;2.92;1.30;;;30.40;99.90;;;;;;5024216;28;20237;-82
2021/07/18 10:17:35;;;;;;;2.30;1.30;;;30.40;99.90;;;;;;5028767;28;20218;-81
2021/07/18 10:20:05;;;;;;;2.25;1.58;;;30.50;99.90;;;;;;5034183;28;20213;-82
2021/07/18 10:22:32;;;;;;;2.00;1.13;;;30.50;99.90;;;;;;5024521;28;20210;-81
2021/07/18 10:25:00;;;;;;;2.63;1.60;;;30.20;99.90;;;;;;5024524;28;20213;-82
2021/07/18 10:27:27;;;;;;;2.88;1.48;;;30.10;99.90;;;;;;5024196;28;20681;-83
2021/07/18 10:29:58;;;;;;;2.55;1.38;;;30.30;99.90;;;;;;5023754;28;20206;-82
2021/07/18 10:32:26;;;;;;;3.80;1.60;;;30.50;99.90;;;;;;5024536;28;21035;-82
2021/07/18 10:34:55;;;;;;;1.75;1.20;;;30.50;99.90;;;;;;5024875;28;20234;-83
2021/07/18 10:37:22;;;;;;;4.10;1.58;;;30.50;99.90;;;;;;5024725;28;20225;-82
2021/07/18 10:39:53;;;;;;;1.70;1.40;;;30.10;99.90;;;;;;5023730;28;20206;-81
2021/07/18 10:42:33;;;;;;;2.30;1.45;;;29.80;99.90;;;;;;5025680;28;20209;-83
2021/07/18 10:45:16;;;;;;;2.05;1.27;;;29.90;99.90;;;;;;5029482;28;20194;-80
2021/07/18 10:48:00;;;;;;;1.52;1.40;;;29.90;99.90;;;;;;5028174;28;20190;-81
2021/07/18 10:50:58;;;;;;;2.60;1.60;;;29.70;99.90;;;;;;5027764;28;20198;-84
2021/07/18 10:53:29;;;;;;;3.53;1.70;;;29.40;99.90;;;;;;5028044;28;20242;-81
2021/07/18 10:55:57;;;;;;;2.33;1.65;;;29.20;99.90;;;;;;5028380;28;20198;-82
2021/07/18 10:58:46;;;;;;;1.70;1.60;;;29.30;99.90;;;;;;5048545;28;20568;-82
2021/07/18 11:01:31;;;;;;;3.38;1.33;;;29.40;99.90;;;;;;5046600;28;20193;-83
2021/07/18 11:03:59;;;;;;;2.63;1.70;;;29.30;99.90;;;;;;5027524;28;20206;-81
2021/07/18 11:06:27;;;;;;;4.75;1.75;;;29.30;99.90;;;;;;5028590;28;20206;-81
2021/07/18 11:09:16;;;;;;;3.28;1.67;;;29.20;99.90;;;;;;5029162;28;20292;-81
2021/07/18 11:11:44;;;;;;;2.72;1.70;;;29.00;99.90;;;;;;5027226;28;20234;-84
2021/07/18 11:14:34;;;;;;;1.95;1.60;;;28.80;99.90;;;;;;5028333;28;20234;-82
2021/07/18 11:17:04;;;;;;;4.32;1.52;;;28.80;99.90;;;;;;5029990;28;20660;-81
2021/07/18 11:19:57;;;;;;;3.75;2.03;;;28.90;99.90;;;;;;5027815;28;20187;-81
2021/07/18 11:23:02;;;;;;;4.60;2.35;;;28.60;99.90;;;;;;5027798;28;20202;-85
2021/07/18 11:25:43;;;;;;;2.65;1.70;;;28.50;99.90;;;;;;5039010;28;20209;-83
2021/07/18 11:28:49;;;;;;;2.47;1.60;;;28.40;99.90;;;;;;5046696;28;20186;-82
2021/07/18 11:31:22;;;;;;;3.25;2.10;;;28.50;99.90;;;;;;5036579;28;20329;-80
2021/07/18 11:33:55;;;;;;;1.70;1.60;;;28.50;99.90;;;;;;5025309;28;20219;-84
2021/07/18 11:36:24;;;;;;;1.77;1.58;;;28.70;99.90;;;;;;5027741;28;20203;-80
2021/07/18 11:38:51;;;;;;;4.93;2.03;;;28.90;99.90;;;;;;5026287;28;20214;-79
2021/07/18 11:41:19;;;;;;;2.35;1.95;;;28.90;99.90;;;;;;5027557;28;20199;-80
2021/07/18 11:43:47;;;;;;;2.13;1.70;;;29.10;99.90;;;;;;5027178;28;20214;-79
2021/07/18 11:46:15;;;;;;;2.10;1.85;;;29.10;99.90;;;;;;5027361;28;20214;-84
2021/07/18 11:48:43;;;;;;;2.50;1.83;;;29.20;99.90;;;;;;5026926;28;20203;-81
2021/07/18 11:51:15;;;;;;;3.40;1.80;;;29.20;99.90;;;;;;5026719;28;20205;-80
2021/07/18 11:53:46;;;;;;;1.98;1.77;;;29.10;99.90;;;;;;5025228;28;20238;-81
2021/07/18 11:56:20;;;;;;;3.17;1.70;;;29.00;99.90;;;;;;5026050;28;20212;-80
2021/07/18 11:58:47;;;;;;;1.73;1.63;;;29.20;99.90;;;;;;5025416;28;20221;-81
2021/07/18 12:01:20;;;;;;;2.63;1.67;;;29.30;99.90;;;;;;5025744;28;20603;-81
2021/07/18 12:03:49;;;;;;;2.03;1.83;;;29.20;99.90;;;;;;5025763;28;20728;-80
2021/07/18 12:06:18;;;;;;;2.33;1.70;;;29.30;99.90;;;;;;5026547;28;20229;-80
2021/07/18 12:08:46;;;;;;;1.58;1.48;;;29.60;99.90;;;;;;5025601;28;20209;-81
2021/07/18 12:11:13;;;;;;;1.70;1.60;;;29.60;99.90;;;;;;5026202;28;20194;-83
2021/07/18 12:13:43;;;;;;;2.03;1.33;;;29.50;99.90;;;;;;5027248;28;20240;-82
2021/07/18 12:16:10;;;;;;;2.78;1.63;;;29.40;99.90;;;;;;5025835;28;20206;-82
2021/07/18 12:18:45;;;;;;;2.42;1.92;;;29.20;99.90;;;;;;5025690;28;20478;-80
2021/07/18 12:21:20;;;;;;;1.70;1.60;;;29.20;99.90;;;;;;5026057;28;20217;-81
2021/07/18 12:24:11;;;;;;;1.70;1.60;;;29.40;99.90;;;;;;5025353;28;20205;-85
2021/07/18 12:26:38;;;;;;;2.92;1.80;;;29.40;99.90;;;;;;5024958;28;20214;-80
2021/07/18 12:29:05;;;;;;;2.10;1.50;;;29.50;99.90;;;;;;5025859;28;20211;-82
2021/07/18 12:31:32;;;;;;;1.98;1.45;;;29.30;99.90;;;;;;5026050;28;20203;-84
2021/07/18 12:33:59;;;;;;;2.58;2.00;;;29.30;99.90;;;;;;5026281;28;20229;-83
2021/07/18 12:36:28;;;;;;;2.42;1.73;;;29.00;99.90;;;;;;5024630;28;20211;-82
2021/07/18 12:38:55;;;;;;;5.15;1.85;;;28.80;99.90;;;;;;5025388;28;20225;-84
2021/07/18 12:41:22;;;;;;;3.78;2.30;;;28.80;99.90;;;;;;5025560;28;20206;-81
2021/07/18 12:43:49;;;;;;;2.10;1.90;;;28.50;99.90;;;;;;5024848;28;20239;-83
2021/07/18 12:46:22;;;;;;;4.88;1.95;;;28.10;99.90;;;;;;5026734;28;20202;-81
2021/07/18 12:49:06;;;;;;;3.47;2.08;;;27.90;99.90;;;;;;5025317;28;20210;-82
2021/07/18 12:51:34;;;;;;;3.65;1.85;;;28.10;99.90;;;;;;5025671;28;20198;-81
2021/07/18 12:54:01;;;;;;;2.88;1.95;;;28.00;99.90;;;;;;5027168;28;20230;-82
2021/07/18 12:56:28;;;;;;;4.07;1.83;;;28.10;99.90;;;;;;5026205;28;20205;-82
2021/07/18 12:58:55;;;;;;;2.80;1.90;;;28.30;99.90;;;;;;5042025;28;20212;-85
2021/07/18 13:01:28;;;;;;;3.38;1.92;;;28.30;99.90;;;;;;5045453;28;20209;-80